Time,TemperatureF,DewpointF,PressureIn,WindDirection,WindDirectionDegrees,WindSpeedMPH,WindSpeedGustMPH,Humidity,HourlyPrecipIn,Conditions,Clouds,dailyrainin,SoftwareType,DateUTC
2013-09-12 00:03:00,65.4,63.0,30.16,ENE,58,2.0,2.0,90,0.00,,,0.00,weatherlink.com 1.10,2013-09-12 04:03:00,
2013-09-12 00:18:00,65.3,62.0,30.16,ENE,58,0.0,3.0,89,0.00,,,0.00,weatherlink.com 1.10,2013-09-12 04:18:00,
2013-09-12 00:33:00,65.1,62.0,30.15,ENE,58,1.0,2.0,89,0.00,,,0.00,weatherlink.com 1.10,2013-09-12 04:33:00,
2013-09-12 00:48:00,65.0,62.0,30.14,ENE,58,0.0,3.0,90,0.00,,,0.00,weatherlink.com 1.10,2013-09-12 04:48:00,
2013-09-12 01:03:00,64.9,62.0,30.14,ENE,58,2.0,2.0,91,0.00,,,0.00,weatherlink.com 1.10,2013-09-12 05:03:00,
2013-09-12 01:33:00,64.9,62.0,30.13,ENE,58,2.0,3.0,90,0.00,,,0.00,weatherlink.com 1.10,2013-09-12 05:33:00,
2013-09-12 01:48:00,64.9,62.0,30.13,ENE,58,2.0,3.0,91,0.00,,,0.00,weatherlink.com 1.10,2013-09-12 05:48:00,
2013-09-12 02:03:00,65.0,62.0,30.12,ENE,58,0.0,2.0,91,0.00,,,0.00,weatherlink.com 1.10,2013-09-12 06:03:00,
2013-09-12 02:18:00,65.0,62.0,30.12,ENE,58,1.0,1.0,90,0.00,,,0.00,weatherlink.com 1.10,2013-09-12 06:18:00,
2013-09-12 02:34:00,65.5,62.0,30.12,ENE,58,2.0,2.0,88,0.00,,,0.00,weatherlink.com 1.10,2013-09-12 06:34:00,
2013-09-12 02:49:00,66.0,61.0,30.12,ENE,67,0.0,3.0,84,0.00,,,0.00,weatherlink.com 1.10,2013-09-12 06:49:00,
2013-09-12 03:04:00,66.2,61.0,30.11,ENE,67,0.0,2.0,83,0.00,,,0.00,weatherlink.com 1.10,2013-09-12 07:04:00,
2013-09-12 03:19:00,65.8,61.0,30.11,ENE,66,1.0,1.0,84,0.00,,,0.00,weatherlink.com 1.10,2013-09-12 07:19:00,
2013-09-12 03:34:00,65.4,61.0,30.11,ENE,67,0.0,1.0,84,0.00,,,0.00,weatherlink.com 1.10,2013-09-12 07:34:00,
2013-09-12 03:49:00,65.0,60.0,30.11,ENE,67,0.0,0.0,84,0.00,,,0.00,weatherlink.com 1.10,2013-09-12 07:49:00,
2013-09-12 04:04:00,64.8,61.0,30.11,ENE,66,1.0,2.0,86,0.00,,,0.00,weatherlink.com 1.10,2013-09-12 08:04:00,
2013-09-12 04:19:00,64.7,60.0,30.11,ENE,66,1.0,2.0,85,0.00,,,0.00,weatherlink.com 1.10,2013-09-12 08:19:00,
2013-09-12 04:34:00,64.9,60.0,30.10,ENE,66,2.0,3.0,84,0.00,,,0.00,weatherlink.com 1.10,2013-09-12 08:34:00,
2013-09-12 04:49:00,64.7,60.0,30.10,ENE,66,0.0,2.0,85,0.00,,,0.00,weatherlink.com 1.10,2013-09-12 08:49:00,
2013-09-12 05:04:00,64.8,60.0,30.10,ENE,66,2.0,2.0,85,0.00,,,0.00,weatherlink.com 1.10,2013-09-12 09:04:00,
2013-09-12 05:19:00,64.8,61.0,30.10,ENE,66,0.0,1.0,86,0.00,,,0.00,weatherlink.com 1.10,2013-09-12 09:19:00,
2013-09-12 05:34:00,64.7,61.0,30.10,ENE,66,0.0,0.0,87,0.00,,,0.00,weatherlink.com 1.10,2013-09-12 09:34:00,
2013-09-12 05:49:00,64.7,61.0,30.10,ENE,66,0.0,0.0,87,0.00,,,0.00,weatherlink.com 1.10,2013-09-12 09:49:00,
2013-09-12 06:04:00,64.5,61.0,30.10,ENE,66,0.0,0.0,88,0.00,,,0.00,weatherlink.com 1.10,2013-09-12 10:04:00,
2013-09-12 06:19:00,64.3,61.0,30.10,ENE,66,1.0,2.0,88,0.00,,,0.00,weatherlink.com 1.10,2013-09-12 10:19:00,
2013-09-12 06:34:00,64.3,61.0,30.10,ENE,66,1.0,3.0,89,0.00,,,0.00,weatherlink.com 1.10,2013-09-12 10:34:00,
2013-09-12 06:49:00,64.4,61.0,30.11,ENE,66,0.0,0.0,88,0.00,,,0.00,weatherlink.com 1.10,2013-09-12 10:49:00,
2013-09-12 07:04:00,63.8,61.0,30.10,ENE,66,1.0,1.0,89,0.00,,,0.00,weatherlink.com 1.10,2013-09-12 11:04:00,
2013-09-12 07:19:00,63.8,61.0,30.11,ENE,66,1.0,2.0,90,0.00,,,0.00,weatherlink.com 1.10,2013-09-12 11:19:00,
2013-09-12 07:34:00,63.8,61.0,30.11,ENE,66,2.0,2.0,89,0.00,,,0.00,weatherlink.com 1.10,2013-09-12 11:34:00,
2013-09-12 07:49:00,64.1,61.0,30.11,ENE,66,0.0,3.0,90,0.00,,,0.00,weatherlink.com 1.10,2013-09-12 11:49:00,
2013-09-12 08:04:00,64.3,61.0,30.11,ENE,66,0.0,0.0,89,0.00,,,0.00,weatherlink.com 1.10,2013-09-12 12:04:00,
2013-09-12 08:19:00,64.5,62.0,30.11,ENE,66,0.0,1.0,90,0.00,,,0.00,weatherlink.com 1.10,2013-09-12 12:19:00,
2013-09-12 08:34:00,64.6,62.0,30.11,ENE,67,0.0,3.0,90,0.00,,,0.00,weatherlink.com 1.10,2013-09-12 12:34:00,
2013-09-12 08:49:00,65.0,62.0,30.11,ENE,66,0.0,2.0,90,0.00,,,0.00,weatherlink.com 1.10,2013-09-12 12:49:00,
2013-09-12 09:04:00,65.4,63.0,30.10,ENE,66,0.0,0.0,90,0.00,,,0.00,weatherlink.com 1.10,2013-09-12 13:04:00,
2013-09-12 09:19:00,66.3,63.0,30.11,ENE,66,0.0,0.0,89,0.00,,,0.00,weatherlink.com 1.10,2013-09-12 13:19:00,
2013-09-12 09:34:00,67.1,64.0,30.10,ENE,66,0.0,0.0,89,0.00,,,0.00,weatherlink.com 1.10,2013-09-12 13:34:00,
2013-09-12 09:49:00,68.7,64.0,30.10,ENE,66,1.0,2.0,86,0.00,,,0.00,weatherlink.com 1.10,2013-09-12 13:49:00,
2013-09-12 10:04:00,69.0,64.0,30.10,SSW,198,0.0,3.0,85,0.00,,,0.00,weatherlink.com 1.10,2013-09-12 14:04:00,
2013-09-12 10:19:00,70.0,64.0,30.10,East,79,0.0,3.0,81,0.00,,,0.00,weatherlink.com 1.10,2013-09-12 14:19:00,
2013-09-12 10:34:00,70.4,64.0,30.10,SSW,192,0.0,3.0,81,0.00,,,0.00,weatherlink.com 1.10,2013-09-12 14:34:00,
2013-09-12 10:49:00,70.1,65.0,30.09,SSW,213,0.0,4.0,83,0.00,,,0.00,weatherlink.com 1.10,2013-09-12 14:49:00,
2013-09-12 11:04:00,69.1,65.0,30.09,SSW,203,1.0,2.0,86,0.00,,,0.00,weatherlink.com 1.10,2013-09-12 15:04:00,
2013-09-12 11:19:00,68.6,64.0,30.10,SSE,166,0.0,1.0,85,0.00,,,0.00,weatherlink.com 1.10,2013-09-12 15:19:00,
2013-09-12 11:35:00,68.6,63.0,30.09,South,184,0.0,4.0,81,0.00,,,0.00,weatherlink.com 1.10,2013-09-12 15:35:00,
2013-09-12 11:50:00,68.2,63.0,30.09,South,171,0.0,2.0,84,0.00,,,0.00,weatherlink.com 1.10,2013-09-12 15:50:00,
2013-09-12 12:05:00,67.8,64.0,30.08,South,171,1.0,2.0,87,0.01,,,0.01,weatherlink.com 1.10,2013-09-12 16:05:00,
2013-09-12 12:20:00,68.8,64.0,30.08,SE,124,0.0,5.0,85,0.01,,,0.01,weatherlink.com 1.10,2013-09-12 16:20:00,
2013-09-12 12:35:00,68.9,64.0,30.07,South,174,0.0,4.0,84,0.01,,,0.01,weatherlink.com 1.10,2013-09-12 16:35:00,
2013-09-12 12:50:00,69.0,65.0,30.07,ENE,60,0.0,2.0,88,0.01,,,0.01,weatherlink.com 1.10,2013-09-12 16:50:00,
2013-09-12 13:05:00,68.9,65.0,30.08,ESE,103,0.0,1.0,87,0.00,,,0.01,weatherlink.com 1.10,2013-09-12 17:05:00,
2013-09-12 13:20:00,67.9,64.0,30.08,South,188,0.0,3.0,86,0.00,,,0.01,weatherlink.com 1.10,2013-09-12 17:20:00,
2013-09-12 13:35:00,66.9,64.0,30.07,South,179,0.0,1.0,90,0.00,,,0.01,weatherlink.com 1.10,2013-09-12 17:35:00,
2013-09-12 13:50:00,66.1,64.0,30.07,South,177,0.0,3.0,91,0.02,,,0.03,weatherlink.com 1.10,2013-09-12 17:50:00,
2013-09-12 14:05:00,65.3,62.0,30.06,ENE,67,2.0,3.0,90,0.04,,,0.05,weatherlink.com 1.10,2013-09-12 18:05:00,
2013-09-12 14:20:00,64.2,63.0,30.04,NE,53,1.0,4.0,94,0.04,,,0.05,weatherlink.com 1.10,2013-09-12 18:20:00,
2013-09-12 14:35:00,66.1,65.0,30.03,East,85,0.0,1.0,97,0.04,,,0.05,weatherlink.com 1.10,2013-09-12 18:35:00,
2013-09-12 14:50:00,68.0,65.0,30.03,SSW,206,2.0,4.0,89,0.02,,,0.05,weatherlink.com 1.10,2013-09-12 18:50:00,
2013-09-12 15:05:00,70.8,66.0,30.01,South,175,0.0,3.0,85,0.00,,,0.05,weatherlink.com 1.10,2013-09-12 19:05:00,
2013-09-12 15:20:00,71.4,66.0,30.01,East,87,0.0,2.0,84,0.00,,,0.05,weatherlink.com 1.10,2013-09-12 19:20:00,
2013-09-12 15:35:00,71.2,65.0,30.01,ESE,105,0.0,3.0,81,0.00,,,0.05,weatherlink.com 1.10,2013-09-12 19:35:00,
2013-09-12 15:50:00,70.5,65.0,30.00,East,83,5.0,5.0,82,0.00,,,0.05,weatherlink.com 1.10,2013-09-12 19:50:00,
2013-09-12 16:05:00,70.1,64.0,29.99,ESE,109,1.0,3.0,80,0.00,,,0.05,weatherlink.com 1.10,2013-09-12 20:05:00,
2013-09-12 16:20:00,70.8,64.0,29.99,SSE,155,0.0,5.0,78,0.00,,,0.05,weatherlink.com 1.10,2013-09-12 20:20:00,
2013-09-12 16:35:00,71.3,65.0,29.98,ESE,110,0.0,4.0,79,0.00,,,0.05,weatherlink.com 1.10,2013-09-12 20:35:00,
2013-09-12 16:50:00,70.6,64.0,29.96,ESE,123,1.0,3.0,79,0.00,,,0.05,weatherlink.com 1.10,2013-09-12 20:50:00,
2013-09-12 17:05:00,70.3,64.0,29.96,East,100,0.0,3.0,79,0.00,,,0.05,weatherlink.com 1.10,2013-09-12 21:05:00,
2013-09-12 17:20:00,70.4,64.0,29.96,ESE,114,1.0,3.0,80,0.00,,,0.05,weatherlink.com 1.10,2013-09-12 21:20:00,
2013-09-12 17:35:00,69.9,63.0,29.96,East,91,0.0,1.0,78,0.00,,,0.05,weatherlink.com 1.10,2013-09-12 21:35:00,
2013-09-12 17:50:00,69.9,64.0,29.96,East,91,2.0,2.0,82,0.00,,,0.05,weatherlink.com 1.10,2013-09-12 21:50:00,
2013-09-12 18:05:00,69.2,64.0,29.96,East,79,0.0,2.0,82,0.00,,,0.05,weatherlink.com 1.10,2013-09-12 22:05:00,
2013-09-12 18:20:00,69.7,64.0,29.96,South,184,0.0,3.0,82,0.00,,,0.05,weatherlink.com 1.10,2013-09-12 22:20:00,
2013-09-12 18:35:00,68.4,63.0,29.96,ESE,113,1.0,3.0,84,0.00,,,0.05,weatherlink.com 1.10,2013-09-12 22:35:00,
2013-09-12 18:50:00,67.7,63.0,29.96,East,84,0.0,3.0,85,0.00,,,0.05,weatherlink.com 1.10,2013-09-12 22:50:00,
2013-09-12 19:05:00,67.4,63.0,29.96,East,84,2.0,3.0,86,0.00,,,0.05,weatherlink.com 1.10,2013-09-12 23:05:00,
2013-09-12 19:20:00,66.7,63.0,29.95,East,84,0.0,3.0,87,0.00,,,0.05,weatherlink.com 1.10,2013-09-12 23:20:00,
2013-09-12 19:36:00,66.4,63.0,29.96,ENE,71,0.0,3.0,87,0.00,,,0.05,weatherlink.com 1.10,2013-09-12 23:36:00,
2013-09-12 19:51:00,66.5,62.0,29.96,NE,40,1.0,4.0,85,0.00,,,0.05,weatherlink.com 1.10,2013-09-12 23:51:00,
2013-09-12 20:06:00,66.6,62.0,29.95,ENE,77,1.0,3.0,85,0.00,,,0.05,weatherlink.com 1.10,2013-09-13 00:06:00,
2013-09-12 20:21:00,66.4,62.0,29.95,ENE,77,1.0,3.0,84,0.00,,,0.05,weatherlink.com 1.10,2013-09-13 00:21:00,
2013-09-12 20:36:00,66.4,62.0,29.97,ENE,59,1.0,3.0,86,0.00,,,0.05,weatherlink.com 1.10,2013-09-13 00:36:00,
2013-09-12 20:51:00,66.6,61.0,29.99,South,176,3.0,7.0,83,0.00,,,0.05,weatherlink.com 1.10,2013-09-13 00:51:00,
2013-09-12 21:06:00,66.0,60.0,29.99,SSE,160,7.0,11.0,80,0.00,,,0.05,weatherlink.com 1.10,2013-09-13 01:06:00,
2013-09-12 21:21:00,65.2,59.0,29.98,South,188,1.0,10.0,80,0.01,,,0.06,weatherlink.com 1.10,2013-09-13 01:21:00,
2013-09-12 21:36:00,63.2,60.0,29.99,ENE,70,0.0,4.0,89,0.04,,,0.09,weatherlink.com 1.10,2013-09-13 01:36:00,
2013-09-12 21:51:00,61.5,59.0,29.99,NE,50,0.0,5.0,91,0.08,,,0.13,weatherlink.com 1.10,2013-09-13 01:51:00,
2013-09-12 22:06:00,60.6,59.0,30.00,ENE,72,2.0,3.0,94,0.12,,,0.17,weatherlink.com 1.10,2013-09-13 02:06:00,
2013-09-12 22:21:00,60.0,59.0,29.98,ENE,70,1.0,4.0,95,0.15,,,0.21,weatherlink.com 1.10,2013-09-13 02:21:00,
2013-09-12 22:36:00,59.5,58.0,29.98,NE,46,2.0,4.0,95,0.13,,,0.22,weatherlink.com 1.10,2013-09-13 02:36:00,
2013-09-12 22:51:00,59.6,58.0,29.97,NE,50,0.0,3.0,95,0.08,,,0.22,weatherlink.com 1.10,2013-09-13 02:51:00,
2013-09-12 23:06:00,59.3,58.0,29.96,NE,50,1.0,2.0,96,0.04,,,0.22,weatherlink.com 1.10,2013-09-13 03:06:00,
2013-09-12 23:21:00,60.3,59.0,29.96,NNE,30,4.0,4.0,95,0.01,,,0.22,weatherlink.com 1.10,2013-09-13 03:21:00,
2013-09-12 23:36:00,61.1,59.0,29.95,NNE,23,4.0,5.0,94,0.00,,,0.22,weatherlink.com 1.10,2013-09-13 03:36:00,
2013-09-12 23:51:00,61.9,60.0,29.95,NNE,20,2.0,5.0,94,0.00,,,0.22,weatherlink.com 1.10,2013-09-13 03:51:00,